Meteorología y climatología de Navarra
Datos de la estación - Meteo Navarra

Estación de Aoiz GN

Altitud 534 m.


Datos desde el 14/08/2019 hasta el 15/08/2019 en horario solar
Los datos son PROVISIONALES

Anterior Página 1 de 1 Siguiente Descargar: Formato para Excel 2000 o superior   Formato csv   Formato para OpenOffice Calc
Fecha Temperatura Humedad relativa Radiación global Insolación Precipitación Vel. viento 10 m Vel. viento 10 m Dir. viento 10 m
ºC % W/m² s l/m² m/s km/h º
14/08/2019 0:00 12.3 79 0.0 0 0.0 0.4 1.4 40
14/08/2019 0:10 12.5 78 0.0 0 0.0 2.0 7.2 348
14/08/2019 0:20 13.4 74 0.0 0 0.0 2.0 7.1 346
14/08/2019 0:30 12.7 78 0.0 0 0.0 1.5 5.5 348
14/08/2019 0:40 12.4 79 0.0 0 0.0 0.6 2.3 309
14/08/2019 0:50 11.9 82 0.0 0 0.0 0.7 2.4 176
14/08/2019 1:00 11.7 82 0.0 0 0.0 0.1 0.5 174
14/08/2019 1:10 11.3 83 0.0 0 0.0 0.2 0.6 171
14/08/2019 1:20 11.3 84 0.0 0 0.0 0.3 1.0 232
14/08/2019 1:30 11.7 83 0.0 0 0.0 0.4 1.3 303
14/08/2019 1:40 11.6 83 0.0 0 0.0 0.9 3.1 336
14/08/2019 1:50 11.8 82 0.0 0 0.0 0.1 0.3 324
14/08/2019 2:00 11.5 84 0.0 0 0.0 0.1 0.5 269
14/08/2019 2:10 11.2 85 0.0 0 0.0 0.3 0.9 265
14/08/2019 2:20 10.8 86 0.0 0 0.0 0.6 2.0 273
14/08/2019 2:30 10.7 88 0.0 0 0.0 1.2 4.4 29
14/08/2019 2:40 10.7 89 0.0 0 0.0 1.0 3.5 21
14/08/2019 2:50 11.0 88 0.0 0 0.0 0.7 2.6 30
14/08/2019 3:00 10.8 87 0.0 0 0.0 1.3 4.6 283
14/08/2019 3:10 10.1 88 0.0 0 0.0 1.1 3.8 271
14/08/2019 3:20 10.0 88 0.0 0 0.0 0.8 2.8 263
14/08/2019 3:30 9.9 88 0.0 0 0.0 0.4 1.3 249
14/08/2019 3:40 9.5 89 0.0 0 0.0 0.0 0.1 183
14/08/2019 3:50 9.4 90 0.0 0 0.0 0.1 0.3 183
14/08/2019 4:00 9.6 90 0.0 0 0.0 0.0 0.1 183
14/08/2019 4:10 9.5 90 0.0 0 0.0 0.1 0.2 168
14/08/2019 4:20 9.6 90 0.0 0 0.0 0.4 1.3 195
14/08/2019 4:30 9.7 89 0.0 0 0.0 0.3 0.9 227
14/08/2019 4:40 10.2 89 0.0 0 0.0 1.2 4.4 29
14/08/2019 4:50 10.5 88 0.0 0 0.0 1.1 4.1 25
14/08/2019 5:00 10.4 87 0.0 0 0.0 1.2 4.1 9
14/08/2019 5:10 10.6 86 0.0 0 0.0 1.1 3.9 354
14/08/2019 5:20 10.4 86 0.0 0 0.0 1.4 5.0 325
14/08/2019 5:30 9.9 86 0.1 0 0.0 0.7 2.6 269
14/08/2019 5:40 9.3 87 11.2 0 0.0 0.9 3.2 249
14/08/2019 5:50 9.2 88 21.4 0 0.0 0.5 1.8 231
14/08/2019 6:00 9.3 88 55.1 236 0.0 0.2 0.6 265
14/08/2019 6:10 10.0 86 97.1 506 0.0 0.5 1.9 302
14/08/2019 6:20 10.5 83 91.2 220 0.0 0.9 3.3 78
14/08/2019 6:30 11.1 82 173.2 600 0.0 0.6 2.0 319
14/08/2019 6:40 11.6 80 203.7 600 0.0 0.1 0.3 269
14/08/2019 6:50 12.7 76 234.6 600 0.0 0.3 1.2 17
14/08/2019 7:00 13.2 73 265.6 600 0.0 0.8 2.9 169
14/08/2019 7:10 12.9 75 298.8 600 0.0 0.9 3.3 214
14/08/2019 7:20 13.1 74 330.8 600 0.0 0.7 2.4 218
14/08/2019 7:30 13.6 72 362.1 600 0.0 0.3 1.1 211
14/08/2019 7:40 14.1 70 393.7 600 0.0 0.6 2.2 168
14/08/2019 7:50 14.6 67 426.1 600 0.0 0.6 2.2 207
14/08/2019 8:00 15.0 66 456.7 600 0.0 0.9 3.2 243
14/08/2019 8:10 15.3 66 488.4 600 0.0 0.9 3.3 237
14/08/2019 8:20 16.1 64 518.2 600 0.0 0.8 2.8 224
14/08/2019 8:30 16.9 62 547.2 600 0.0 0.9 3.2 195
14/08/2019 8:40 18.1 59 576.5 600 0.0 0.5 1.9 136
14/08/2019 8:50 17.9 58 605.9 600 0.0 0.8 2.8 211
14/08/2019 9:00 18.4 56 630.8 600 0.0 0.8 2.8 192
14/08/2019 9:10 18.8 52 658.9 600 0.0 0.8 2.7 205
14/08/2019 9:20 19.5 50 683.9 600 0.0 0.7 2.6 198
14/08/2019 9:30 19.9 48 707.5 600 0.0 0.7 2.3 196
14/08/2019 9:40 20.8 45 705.0 600 0.0 1.1 4.0 209
14/08/2019 9:50 21.2 40 741.5 600 0.0 1.1 3.9 232
14/08/2019 10:00 21.8 39 775.3 600 0.0 1.4 4.9 206
14/08/2019 10:10 22.5 36 793.7 600 0.0 0.9 3.3 215
14/08/2019 10:20 23.6 34 812.0 600 0.0 1.2 4.4 197
14/08/2019 10:30 23.8 33 829.0 600 0.0 1.5 5.4 189
14/08/2019 10:40 24.1 32 845.0 600 0.0 1.2 4.2 211
14/08/2019 10:50 24.7 31 861.0 600 0.0 1.6 5.6 225
14/08/2019 11:00 25.8 30 882.0 600 0.0 1.2 4.2 144
14/08/2019 11:10 26.4 29 851.0 600 0.0 1.2 4.4 142
14/08/2019 11:20 26.4 29 878.0 600 0.0 3.2 11.5 266
14/08/2019 11:30 26.4 29 910.0 600 0.0 3.5 12.4 259
14/08/2019 11:40 26.6 30 908.0 600 0.0 4.0 14.3 248
14/08/2019 11:50 27.0 29 909.0 600 0.0 2.1 7.4 286
14/08/2019 12:00 27.5 29 914.0 600 0.0 3.4 12.3 288
14/08/2019 12:10 28.1 29 914.0 600 0.0 2.6 9.4 323
14/08/2019 12:20 28.2 29 914.0 600 0.0 3.3 11.7 311
14/08/2019 12:30 27.7 30 910.0 600 0.0 4.4 15.9 290
14/08/2019 12:40 27.5 31 912.0 600 0.0 4.0 14.2 270
14/08/2019 12:50 28.4 31 903.0 600 0.0 3.2 11.7 303
14/08/2019 13:00 28.0 32 899.0 600 0.0 4.6 16.6 279
14/08/2019 13:10 28.0 32 889.0 600 0.0 5.4 19.5 291
14/08/2019 13:20 28.2 33 874.0 600 0.0 5.9 21.3 266
14/08/2019 13:30 28.6 33 867.0 600 0.0 3.9 14.2 279
14/08/2019 13:40 28.7 33 816.0 600 0.0 5.8 21.0 280
14/08/2019 13:50 28.9 33 843.0 600 0.0 4.6 16.7 267
14/08/2019 14:00 28.9 32 824.0 600 0.0 4.8 17.4 275
14/08/2019 14:10 29.2 32 805.0 600 0.0 2.0 7.2 328
14/08/2019 14:20 28.6 32 785.5 600 0.0 2.5 9.0 281
14/08/2019 14:30 29.2 32 765.0 600 0.0 2.1 7.7 320
14/08/2019 14:40 28.9 33 747.2 600 0.0 3.6 12.8 319
14/08/2019 14:50 28.6 34 725.8 600 0.0 2.3 8.4 338
14/08/2019 15:00 27.8 36 701.0 600 0.0 4.1 14.6 360
14/08/2019 15:10 26.9 38 679.8 600 0.0 4.8 17.2 10
14/08/2019 15:20 26.7 38 655.5 600 0.0 4.3 15.6 2
14/08/2019 15:30 26.4 39 628.9 600 0.0 5.1 18.3 3
14/08/2019 15:40 26.3 39 600.6 600 0.0 4.2 15.0 12
14/08/2019 15:50 26.1 38 573.6 600 0.0 4.6 16.5 14
14/08/2019 16:00 26.1 38 544.2 600 0.0 3.6 12.9 16
14/08/2019 16:10 25.6 39 514.8 600 0.0 4.3 15.3 7
14/08/2019 16:20 25.3 40 483.8 600 0.0 4.7 16.9 3
14/08/2019 16:30 25.1 41 453.4 600 0.0 4.5 16.3 3
14/08/2019 16:40 25.0 41 421.8 600 0.0 4.5 16.1 14
14/08/2019 16:50 24.9 41 393.3 600 0.0 3.6 12.8 13
14/08/2019 17:00 24.8 41 361.2 600 0.0 4.4 15.9 3
14/08/2019 17:10 24.5 42 295.4 600 0.0 4.2 15.1 12
14/08/2019 17:20 24.3 42 293.1 600 0.0 4.7 16.9 7
14/08/2019 17:30 24.1 43 266.6 600 0.0 4.2 15.2 13
14/08/2019 17:40 23.9 44 234.1 600 0.0 4.2 14.9 11
14/08/2019 17:50 23.7 45 202.4 600 0.0 3.8 13.6 17
14/08/2019 18:00 23.5 47 193.0 600 0.0 3.8 13.6 20
14/08/2019 18:10 23.3 49 150.1 600 0.0 3.5 12.7 19
14/08/2019 18:20 22.9 51 81.2 304 0.0 3.4 12.4 11
14/08/2019 18:30 22.4 53 36.4 104 0.0 3.1 11.2 0
14/08/2019 18:40 22.2 54 34.0 44 0.0 3.0 10.7 344
14/08/2019 18:50 21.9 57 24.9 0 0.0 3.4 12.3 323
14/08/2019 19:00 21.8 57 11.2 0 0.0 2.5 9.0 320
14/08/2019 19:10 21.7 58 0.0 0 0.0 4.3 15.6 299
14/08/2019 19:20 21.5 59 0.0 0 0.0 3.9 14.0 313
14/08/2019 19:30 21.2 59 0.0 0 0.0 4.0 14.3 308
14/08/2019 19:40 21.1 60 0.0 0 0.0 3.0 10.9 324
14/08/2019 19:50 20.9 63 0.0 0 0.0 2.9 10.4 327
14/08/2019 20:00 20.8 63 0.0 0 0.0 2.6 9.2 295
14/08/2019 20:10 20.5 65 0.0 0 0.0 2.1 7.5 296
14/08/2019 20:20 20.4 65 0.0 0 0.0 2.3 8.3 306
14/08/2019 20:30 20.3 64 0.0 0 0.0 1.2 4.2 307
14/08/2019 20:40 20.2 63 0.0 0 0.0 1.6 5.7 298
14/08/2019 20:50 20.1 64 0.0 0 0.0 2.0 7.1 278
14/08/2019 21:00 20.0 65 0.0 0 0.0 2.8 10.0 298
14/08/2019 21:10 19.9 66 0.0 0 0.0 3.4 12.3 303
14/08/2019 21:20 19.7 68 0.0 0 0.0 4.2 14.9 292
14/08/2019 21:30 19.6 70 0.0 0 0.0 3.7 13.4 307
14/08/2019 21:40 19.6 71 0.0 0 0.0 3.0 10.9 339
14/08/2019 21:50 19.7 71 0.0 0 0.0 1.5 5.5 287
14/08/2019 22:00 19.7 71 0.0 0 0.0 2.4 8.7 296
14/08/2019 22:10 19.5 71 0.0 0 0.0 2.7 9.8 287
14/08/2019 22:20 19.4 71 0.0 0 0.0 2.4 8.7 280
14/08/2019 22:30 19.2 71 0.0 0 0.0 2.9 10.5 283
14/08/2019 22:40 19.0 73 0.0 0 0.0 2.4 8.5 284
14/08/2019 22:50 18.9 73 0.0 0 0.0 3.5 12.5 277
14/08/2019 23:00 18.8 74 0.0 0 0.0 3.1 11.1 279
14/08/2019 23:10 18.6 75 0.0 0 0.0 2.4 8.7 295
14/08/2019 23:20 18.9 76 0.0 0 0.0 3.3 11.7 281
14/08/2019 23:30 18.9 76 0.0 0 0.0 3.9 14.0 285
14/08/2019 23:40 19.0 76 0.0 0 0.0 3.9 14.0 292
14/08/2019 23:50 19.1 76 0.0 0 0.0 2.5 9.1 288
Anterior Página 1 de 1 Siguiente

NOTA: Tipo de datos según el color:
   - Valores diarios o 10 minutos correctos
   - Valores diarios calculados a partir de un número de datos 10 minutos menor que 144 y mayor que 120, o de un número de datos semihorarios menor que 48 y mayor que 40 (caso de las estaciones de Riegos de Navarra y del MARM)
   - Valores diez minutos estimados


Contacto        Enlaces        Aviso legal